3CA7 weather

Metz Airport
Greenfield, California, United States

Public forecast

Using degrees Fahrenheit for public forecast. Weather courtesy of forecast.io.

Closest aviation weather report (METAR) to Metz Airport

Closest report is Salinas Municipal Airport, 28.5 nm (52.8 km) NW. Retrieved 2019/10/17 22:53 UTC (59 minutes ago):

KSNS 172253Z 29017KT 10SM CLR 19/08 A2995 RMK AO2 SLP151 T01890078

Closest aviation forecast (TAF) to Metz Airport

Closest forecast is Salinas Municipal Airport, 28.5 nm (52.8 km) NW. Retrieved 2019/10/17 18:39 UTC (5 hours ago):

TAF KSNS 171737Z 1718/1818 28008KT P6SM SCT014 BKN019 OVC023 FM172000 29015G20KT P6SM SCT050 SCT200 FM180400 32008KT P6SM FEW010 FEW200 FM181000 29004KT P6SM FEW010 FEW200 FM181500 VRB03KT P6SM SKC